createdAt,value
2022-08-05T00:00:21.601Z,4.0
2022-08-05T00:06:05.325Z,3.7
2022-08-05T00:10:17.424Z,3.6
2022-08-05T00:15:58.226Z,3.6
2022-08-05T00:20:29.028Z,4.0
2022-08-05T00:25:18.194Z,4.1
2022-08-05T00:30:29.220Z,3.8
2022-08-05T00:35:33.240Z,4.1
2022-08-05T00:40:17.824Z,4.0
2022-08-05T00:45:28.339Z,4.0
2022-08-05T00:50:30.586Z,3.8
2022-08-05T00:55:20.675Z,4.0
2022-08-05T01:00:26.058Z,3.8
2022-08-05T01:05:30.311Z,4.0
2022-08-05T01:10:19.901Z,4.2
2022-08-05T01:15:36.178Z,4.0
2022-08-05T01:20:31.548Z,4.4
2022-08-05T01:25:23.113Z,4.1
2022-08-05T01:30:33.567Z,4.1
2022-08-05T01:35:52.010Z,4.0
2022-08-05T01:40:21.501Z,3.9
2022-08-05T01:45:27.639Z,4.4
2022-08-05T01:50:16.311Z,4.2
2022-08-05T01:55:23.142Z,4.5
2022-08-05T02:00:30.232Z,4.5
2022-08-05T02:05:18.890Z,4.3
2022-08-05T02:10:28.457Z,4.5
2022-08-05T02:15:33.243Z,4.3
2022-08-05T02:20:20.778Z,4.3
2022-08-05T02:25:25.169Z,4.3
2022-08-05T02:30:31.161Z,4.4
2022-08-05T02:35:27.839Z,4.7
2022-08-05T02:40:26.334Z,4.4
2022-08-05T02:45:52.294Z,4.3
2022-08-05T02:50:21.011Z,4.6
2022-08-05T02:55:54.065Z,4.9
2022-08-05T03:00:16.287Z,4.9
2022-08-05T03:06:54.424Z,4.6
2022-08-05T03:06:55.815Z,4.6
2022-08-05T03:10:28.905Z,5.0
2022-08-05T03:15:18.085Z,4.7
2022-08-05T03:20:24.512Z,4.8
2022-08-05T03:25:33.207Z,4.7
2022-08-05T03:30:19.085Z,5.1
2022-08-05T03:35:25.158Z,4.8
2022-08-05T03:40:32.578Z,4.8
2022-08-05T03:45:22.177Z,5.0
2022-08-05T03:50:25.958Z,5.0
2022-08-05T03:56:05.885Z,5.1
2022-08-05T04:00:21.445Z,5.2
2022-08-05T04:05:28.002Z,4.7
2022-08-05T04:10:20.329Z,5.2
2022-08-05T04:15:24.474Z,5.2
2022-08-05T04:20:29.364Z,5.0
2022-08-05T04:25:17.386Z,5.4
2022-08-05T04:30:23.067Z,4.9
2022-08-05T04:36:09.408Z,5.1
2022-08-05T04:40:21.659Z,5.5
2022-08-05T04:45:48.580Z,5.0
2022-08-05T04:50:37.413Z,5.2
2022-08-05T04:55:21.037Z,5.2
2022-08-05T05:00:25.885Z,4.9
2022-08-05T05:05:31.872Z,4.6
2022-08-05T05:10:23.735Z,4.7
2022-08-05T05:15:56.633Z,4.9
2022-08-05T05:20:33.366Z,4.8
2022-08-05T05:25:22.089Z,5.1
2022-08-05T05:30:29.721Z,4.8
2022-08-05T05:35:20.191Z,4.8
2022-08-05T05:40:22.834Z,4.5
2022-08-05T05:45:29.246Z,7.0
2022-08-05T05:50:19.645Z,4.9
2022-08-05T05:55:23.205Z,5.1
2022-08-05T06:00:34.057Z,5.6
2022-08-05T06:05:20.478Z,4.5
2022-08-05T06:10:24.931Z,4.0
2022-08-05T06:16:28.661Z,4.9
2022-08-05T06:20:21.580Z,4.9
2022-08-05T06:26:13.878Z,5.1
2022-08-05T06:30:32.102Z,23.5
2022-08-05T06:36:03.746Z,9.5
2022-08-05T06:40:27.918Z,7.9
2022-08-05T06:45:44.428Z,4.5
2022-08-05T06:50:21.892Z,4.0
2022-08-05T06:55:27.960Z,4.4
2022-08-05T07:00:22.266Z,3.6
2022-08-05T07:05:31.811Z,3.7
2022-08-05T07:10:32.340Z,3.3
2022-08-05T07:15:34.691Z,3.4
2022-08-05T07:20:33.371Z,3.7
2022-08-05T07:25:55.039Z,3.6
2022-08-05T07:30:30.308Z,3.4
2022-08-05T07:36:03.941Z,3.5
2022-08-05T07:40:33.078Z,3.5
2022-08-05T07:45:57.766Z,3.7
2022-08-05T07:50:28.885Z,3.5
2022-08-05T07:55:44.345Z,3.7
2022-08-05T08:00:20.817Z,3.9
2022-08-05T08:05:26.303Z,3.6
2022-08-05T08:10:33.798Z,3.5
2022-08-05T08:15:37.311Z,3.7
2022-08-05T08:16:35.649Z,3.7
2022-08-05T08:21:00.108Z,3.3
2022-08-05T08:25:17.974Z,3.3
2022-08-05T08:30:32.252Z,5.8
2022-08-05T08:35:28.515Z,3.2
2022-08-05T08:40:17.611Z,3.1
2022-08-05T08:45:27.230Z,2.9
2022-08-05T08:50:52.028Z,3.0
2022-08-05T08:55:19.651Z,3.2
2022-08-05T09:00:24.643Z,3.0
2022-08-05T09:05:38.355Z,3.1
2022-08-05T09:10:19.981Z,2.9
2022-08-05T09:15:26.221Z,3.0
2022-08-05T09:20:37.230Z,3.1
2022-08-05T09:25:24.296Z,2.9
2022-08-05T09:30:27.293Z,2.9
2022-08-05T09:35:33.895Z,2.8
2022-08-05T09:40:22.480Z,2.2
2022-08-05T09:46:06.322Z,2.2
2022-08-05T09:50:18.006Z,2.1
2022-08-05T09:55:57.917Z,2.3
2022-08-05T10:00:30.475Z,2.0
2022-08-05T10:05:18.616Z,2.2
2022-08-05T10:10:28.255Z,2.0
2022-08-05T10:15:34.091Z,1.9
2022-08-05T10:20:20.108Z,1.8
2022-08-05T10:25:26.065Z,1.7
2022-08-05T10:32:49.410Z,1.9
2022-08-05T10:32:51.846Z,1.9
2022-08-05T10:33:01.707Z,1.9
2022-08-05T10:35:20.950Z,1.9
2022-08-05T10:40:27.728Z,1.9
2022-08-05T10:45:42.118Z,1.8
2022-08-05T10:50:35.128Z,1.7
2022-08-05T10:55:27.950Z,2.0
2022-08-05T11:00:20.425Z,1.8
2022-08-05T11:05:26.284Z,2.2
2022-08-05T11:10:29.115Z,2.7
2022-08-05T11:15:20.290Z,2.2
2022-08-05T11:20:23.916Z,2.1
2022-08-05T11:26:04.452Z,1.8
2022-08-05T11:30:19.042Z,1.6
2022-08-05T11:35:25.083Z,3.0
2022-08-05T11:40:31.021Z,3.5
2022-08-05T11:46:14.670Z,1.9
2022-08-05T11:50:26.558Z,1.8
2022-08-05T11:55:36.461Z,1.7
2022-08-05T12:00:20.998Z,1.9
2022-08-05T12:05:36.087Z,2.0
2022-08-05T12:10:38.374Z,2.1
2022-08-05T12:15:23.412Z,2.1
2022-08-05T12:20:33.560Z,2.3
2022-08-05T12:25:16.866Z,1.8
2022-08-05T12:30:22.555Z,1.9
2022-08-05T12:35:37.126Z,2.2
2022-08-05T12:40:26.436Z,2.2
2022-08-05T12:45:23.741Z,2.4
2022-08-05T12:50:30.948Z,2.4
2022-08-05T12:55:22.563Z,2.6
2022-08-05T13:02:00.102Z,2.3
2022-08-05T13:02:01.962Z,2.3
2022-08-05T13:05:33.843Z,2.4
2022-08-05T13:10:20.476Z,3.3
2022-08-05T13:15:36.025Z,2.6
2022-08-05T13:20:32.375Z,3.8
2022-08-05T13:25:21.942Z,6.1
2022-08-05T13:30:33.726Z,6.4
2022-08-05T13:35:47.418Z,5.4
2022-08-05T13:40:36.776Z,5.0
2022-08-05T13:45:31.013Z,3.3
2022-08-05T13:50:16.784Z,2.9
2022-08-05T13:55:40.700Z,2.8
2022-08-05T14:00:28.428Z,2.3
2022-08-05T14:05:29.404Z,1.9
2022-08-05T14:10:30.856Z,2.4
2022-08-05T14:16:07.886Z,4.5
2022-08-05T14:20:19.130Z,5.8
2022-08-05T14:25:28.193Z,8.3
2022-08-05T14:30:31.219Z,5.0
2022-08-05T14:35:20.817Z,2.0
2022-08-05T14:40:26.313Z,2.6
2022-08-05T14:45:33.874Z,5.3
2022-08-05T14:50:21.335Z,3.6
2022-08-05T14:55:28.626Z,2.3
2022-08-05T15:00:16.894Z,3.4
2022-08-05T15:05:21.457Z,2.5
2022-08-05T15:10:28.926Z,3.7
2022-08-05T15:15:16.414Z,4.8
2022-08-05T15:20:24.885Z,4.7
2022-08-05T15:25:50.982Z,4.6
2022-08-05T15:30:17.544Z,4.7
2022-08-05T15:35:23.647Z,6.4
2022-08-05T15:41:04.791Z,5.4
2022-08-05T15:45:37.105Z,4.2
2022-08-05T15:50:25.183Z,6.0
2022-08-05T15:56:04.129Z,5.3
2022-08-05T16:00:26.050Z,5.3
2022-08-05T16:05:28.422Z,5.2
2022-08-05T16:10:31.470Z,6.9
2022-08-05T16:15:20.736Z,6.3
2022-08-05T16:20:28.000Z,7.7
2022-08-05T16:25:34.629Z,5.1
2022-08-05T16:30:25.735Z,2.8
2022-08-05T16:35:32.129Z,2.4
2022-08-05T16:40:24.872Z,2.3
2022-08-05T16:46:04.377Z,2.2
2022-08-05T16:50:28.560Z,1.8
2022-08-05T16:55:17.705Z,1.6
2022-08-05T17:00:34.133Z,1.6
2022-08-05T17:05:29.159Z,1.6
2022-08-05T17:10:18.462Z,1.4
2022-08-05T17:15:24.302Z,1.6
2022-08-05T17:20:30.542Z,2.2
2022-08-05T17:25:33.870Z,4.9
2022-08-05T17:30:28.800Z,1.6
2022-08-05T17:35:32.570Z,1.4
2022-08-05T17:40:22.305Z,1.4
2022-08-05T17:45:38.015Z,1.6
2022-08-05T17:50:32.839Z,1.3
2022-08-05T17:55:21.368Z,1.3
2022-08-05T18:00:28.636Z,1.4
2022-08-05T18:05:16.837Z,1.7
2022-08-05T18:10:22.315Z,1.7
2022-08-05T18:15:28.415Z,1.7
2022-08-05T18:20:17.373Z,2.5
2022-08-05T18:25:23.481Z,2.0
2022-08-05T18:30:29.644Z,2.0
2022-08-05T18:35:18.473Z,1.9
2022-08-05T18:40:34.275Z,1.8
2022-08-05T18:41:53.943Z,1.8
2022-08-05T18:45:41.952Z,2.1
2022-08-05T18:50:19.193Z,2.0
2022-08-05T18:55:25.280Z,2.2
2022-08-05T19:00:31.291Z,2.2
2022-08-05T19:06:13.167Z,2.0
2022-08-05T19:10:28.516Z,2.4
2022-08-05T19:15:59.761Z,2.2
2022-08-05T19:20:21.980Z,2.6
2022-08-05T19:25:30.084Z,2.8
2022-08-05T19:30:17.153Z,2.1
2022-08-05T19:35:23.221Z,2.1
2022-08-05T19:40:29.172Z,2.4
2022-08-05T19:45:18.220Z,8.0
2022-08-05T19:50:24.027Z,2.8
2022-08-05T19:56:15.291Z,2.5
2022-08-05T20:00:20.862Z,2.3
2022-08-05T20:05:25.579Z,2.5
2022-08-05T20:10:31.644Z,2.6
2022-08-05T20:15:23.048Z,2.8
2022-08-05T20:20:26.979Z,2.8
2022-08-05T20:25:33.782Z,2.9
2022-08-05T20:30:21.875Z,3.4
2022-08-05T20:35:28.150Z,3.3
2022-08-05T20:40:16.994Z,3.7
2022-08-05T20:45:23.096Z,3.9
2022-08-05T20:50:28.867Z,4.1
2022-08-05T20:55:56.514Z,4.3
2022-08-05T21:00:44.309Z,4.8
2022-08-05T21:05:47.726Z,5.2
2022-08-05T21:10:18.669Z,5.5
2022-08-05T21:15:24.737Z,5.4
2022-08-05T21:20:32.802Z,5.3
2022-08-05T21:25:19.741Z,5.6
2022-08-05T21:30:25.849Z,5.3
2022-08-05T21:35:56.085Z,4.5
2022-08-05T21:40:20.963Z,5.8
2022-08-05T21:45:56.805Z,4.1
2022-08-05T21:50:32.760Z,3.5
2022-08-05T21:56:01.615Z,3.3
2022-08-05T22:00:27.866Z,3.2
2022-08-05T22:05:16.409Z,3.2
2022-08-05T22:10:26.775Z,3.2
2022-08-05T22:16:00.342Z,3.2
2022-08-05T22:20:17.483Z,3.1
2022-08-05T22:25:27.795Z,2.7
2022-08-05T22:30:35.256Z,2.6
2022-08-05T22:35:18.555Z,2.8
2022-08-05T22:40:24.791Z,2.9
2022-08-05T22:45:30.879Z,2.6
2022-08-05T22:50:26.607Z,2.5
2022-08-05T22:55:26.102Z,2.8
2022-08-05T23:00:32.154Z,3.3
2022-08-05T23:05:21.959Z,2.5
2022-08-05T23:10:26.458Z,2.4
2022-08-05T23:15:34.844Z,2.4
2022-08-05T23:20:21.454Z,2.5
2022-08-05T23:25:50.922Z,2.4
2022-08-05T23:30:16.624Z,2.3
2022-08-05T23:35:22.461Z,2.6
2022-08-05T23:40:28.697Z,2.3
2022-08-05T23:45:17.638Z,2.3
2022-08-05T23:50:23.762Z,2.2
2022-08-05T23:55:30.881Z,2.4
